sensor_id;sensor_type;location;lat;lon;timestamp;temperature;humidity
11824;DHT22;5969;50.780;7.726;2022-08-05T00:01:54;23.00;99.90
11824;DHT22;5969;50.780;7.726;2022-08-05T00:04:20;22.90;99.90
11824;DHT22;5969;50.780;7.726;2022-08-05T00:06:47;22.90;99.90
11824;DHT22;5969;50.780;7.726;2022-08-05T00:09:14;22.70;99.90
11824;DHT22;5969;50.780;7.726;2022-08-05T00:11:41;22.70;99.90
11824;DHT22;5969;50.780;7.726;2022-08-05T00:14:07;22.40;99.90
11824;DHT22;5969;50.780;7.726;2022-08-05T00:16:34;22.30;99.90
11824;DHT22;5969;50.780;7.726;2022-08-05T00:19:03;22.10;99.90
11824;DHT22;5969;50.780;7.726;2022-08-05T00:21:30;21.90;99.90
11824;DHT22;5969;50.780;7.726;2022-08-05T00:23:56;21.80;99.90
11824;DHT22;5969;50.780;7.726;2022-08-05T00:26:25;21.60;99.90
11824;DHT22;5969;50.780;7.726;2022-08-05T00:28:51;21.40;99.90
11824;DHT22;5969;50.780;7.726;2022-08-05T00:31:18;21.20;99.90
11824;DHT22;5969;50.780;7.726;2022-08-05T00:33:45;21.20;99.90
11824;DHT22;5969;50.780;7.726;2022-08-05T00:36:13;21.20;99.90
11824;DHT22;5969;50.780;7.726;2022-08-05T00:38:40;21.20;99.90
11824;DHT22;5969;50.780;7.726;2022-08-05T00:41:06;21.20;99.90
11824;DHT22;5969;50.780;7.726;2022-08-05T00:43:33;21.20;99.90
11824;DHT22;5969;50.780;7.726;2022-08-05T00:46:01;21.20;99.90
11824;DHT22;5969;50.780;7.726;2022-08-05T00:48:28;21.20;99.90
11824;DHT22;5969;50.780;7.726;2022-08-05T00:50:55;21.10;99.90
11824;DHT22;5969;50.780;7.726;2022-08-05T00:53:23;21.10;99.90
11824;DHT22;5969;50.780;7.726;2022-08-05T00:55:50;21.00;99.90
11824;DHT22;5969;50.780;7.726;2022-08-05T00:58:17;20.90;99.90
11824;DHT22;5969;50.780;7.726;2022-08-05T01:00:44;20.90;99.90
11824;DHT22;5969;50.780;7.726;2022-08-05T01:03:11;20.90;99.90
11824;DHT22;5969;50.780;7.726;2022-08-05T01:05:38;20.90;99.90
11824;DHT22;5969;50.780;7.726;2022-08-05T01:08:05;20.90;99.90
11824;DHT22;5969;50.780;7.726;2022-08-05T01:10:39;20.90;99.90
11824;DHT22;5969;50.780;7.726;2022-08-05T01:13:14;20.90;99.90
11824;DHT22;5969;50.780;7.726;2022-08-05T01:15:46;20.90;99.90
11824;DHT22;5969;50.780;7.726;2022-08-05T01:18:22;20.80;99.90
11824;DHT22;5969;50.780;7.726;2022-08-05T01:20:53;20.70;99.90
11824;DHT22;5969;50.780;7.726;2022-08-05T01:23:34;20.70;99.90
11824;DHT22;5969;50.780;7.726;2022-08-05T01:26:24;20.50;99.90
11824;DHT22;5969;50.780;7.726;2022-08-05T01:28:58;20.50;99.90
11824;DHT22;5969;50.780;7.726;2022-08-05T01:31:31;20.50;99.90
11824;DHT22;5969;50.780;7.726;2022-08-05T01:34:03;20.50;99.90
11824;DHT22;5969;50.780;7.726;2022-08-05T01:36:37;20.60;99.90
11824;DHT22;5969;50.780;7.726;2022-08-05T01:39:05;20.60;99.90
11824;DHT22;5969;50.780;7.726;2022-08-05T01:41:34;20.40;99.90
11824;DHT22;5969;50.780;7.726;2022-08-05T01:44:05;20.40;99.90
11824;DHT22;5969;50.780;7.726;2022-08-05T01:46:34;20.40;99.90
11824;DHT22;5969;50.780;7.726;2022-08-05T01:49:02;20.40;99.90
11824;DHT22;5969;50.780;7.726;2022-08-05T01:51:32;20.40;99.90
11824;DHT22;5969;50.780;7.726;2022-08-05T01:54:02;20.30;99.90
11824;DHT22;5969;50.780;7.726;2022-08-05T01:56:33;20.40;99.90
11824;DHT22;5969;50.780;7.726;2022-08-05T01:59:06;20.40;99.90
11824;DHT22;5969;50.780;7.726;2022-08-05T02:01:35;20.40;99.90
11824;DHT22;5969;50.780;7.726;2022-08-05T02:04:02;20.50;99.90
11824;DHT22;5969;50.780;7.726;2022-08-05T02:06:29;20.50;99.90
11824;DHT22;5969;50.780;7.726;2022-08-05T02:08:57;20.50;99.90
11824;DHT22;5969;50.780;7.726;2022-08-05T02:11:24;20.50;99.90
11824;DHT22;5969;50.780;7.726;2022-08-05T02:13:53;20.50;99.90
11824;DHT22;5969;50.780;7.726;2022-08-05T02:16:25;20.40;99.90
11824;DHT22;5969;50.780;7.726;2022-08-05T02:18:57;20.40;99.90
11824;DHT22;5969;50.780;7.726;2022-08-05T02:21:28;20.40;99.90
11824;DHT22;5969;50.780;7.726;2022-08-05T02:23:58;20.40;99.90
11824;DHT22;5969;50.780;7.726;2022-08-05T02:26:35;20.30;99.90
11824;DHT22;5969;50.780;7.726;2022-08-05T02:29:04;20.20;99.90
11824;DHT22;5969;50.780;7.726;2022-08-05T02:31:34;20.20;99.90
11824;DHT22;5969;50.780;7.726;2022-08-05T02:34:09;20.20;99.90
11824;DHT22;5969;50.780;7.726;2022-08-05T02:36:41;20.20;99.90
11824;DHT22;5969;50.780;7.726;2022-08-05T02:39:09;20.20;99.90
11824;DHT22;5969;50.780;7.726;2022-08-05T02:41:38;20.20;99.90
11824;DHT22;5969;50.780;7.726;2022-08-05T02:44:07;20.20;99.90
11824;DHT22;5969;50.780;7.726;2022-08-05T02:46:38;20.10;99.90
11824;DHT22;5969;50.780;7.726;2022-08-05T02:49:06;20.10;99.90
11824;DHT22;5969;50.780;7.726;2022-08-05T02:51:34;20.00;99.90
11824;DHT22;5969;50.780;7.726;2022-08-05T02:54:03;19.90;99.90
11824;DHT22;5969;50.780;7.726;2022-08-05T02:56:31;19.90;99.90
11824;DHT22;5969;50.780;7.726;2022-08-05T02:58:59;19.90;99.90
11824;DHT22;5969;50.780;7.726;2022-08-05T03:01:27;19.90;99.90
11824;DHT22;5969;50.780;7.726;2022-08-05T03:03:58;19.80;99.90
11824;DHT22;5969;50.780;7.726;2022-08-05T03:06:25;19.70;99.90
11824;DHT22;5969;50.780;7.726;2022-08-05T03:08:53;19.70;99.90
11824;DHT22;5969;50.780;7.726;2022-08-05T03:11:21;19.80;99.90
11824;DHT22;5969;50.780;7.726;2022-08-05T03:13:49;19.90;99.90
11824;DHT22;5969;50.780;7.726;2022-08-05T03:16:16;19.90;99.90
11824;DHT22;5969;50.780;7.726;2022-08-05T03:18:43;20.00;99.90
11824;DHT22;5969;50.780;7.726;2022-08-05T03:21:11;20.00;99.90
11824;DHT22;5969;50.780;7.726;2022-08-05T03:23:40;20.00;99.90
11824;DHT22;5969;50.780;7.726;2022-08-05T03:26:08;20.10;99.90
11824;DHT22;5969;50.780;7.726;2022-08-05T03:28:36;20.10;99.90
11824;DHT22;5969;50.780;7.726;2022-08-05T03:31:04;20.10;99.90
11824;DHT22;5969;50.780;7.726;2022-08-05T03:33:31;20.20;99.90
11824;DHT22;5969;50.780;7.726;2022-08-05T03:35:58;20.20;99.90
11824;DHT22;5969;50.780;7.726;2022-08-05T03:38:26;20.20;99.90
11824;DHT22;5969;50.780;7.726;2022-08-05T03:40:54;20.20;99.90
11824;DHT22;5969;50.780;7.726;2022-08-05T03:43:21;20.20;99.90
11824;DHT22;5969;50.780;7.726;2022-08-05T03:45:49;20.20;99.90
11824;DHT22;5969;50.780;7.726;2022-08-05T03:48:16;20.20;99.90
11824;DHT22;5969;50.780;7.726;2022-08-05T03:50:49;20.20;99.90
11824;DHT22;5969;50.780;7.726;2022-08-05T03:53:22;20.30;99.90
11824;DHT22;5969;50.780;7.726;2022-08-05T03:55:59;20.20;99.90
11824;DHT22;5969;50.780;7.726;2022-08-05T03:58:29;20.30;99.90
11824;DHT22;5969;50.780;7.726;2022-08-05T04:00:59;20.30;99.90
11824;DHT22;5969;50.780;7.726;2022-08-05T04:03:26;20.20;99.90
11824;DHT22;5969;50.780;7.726;2022-08-05T04:05:54;20.20;99.90
11824;DHT22;5969;50.780;7.726;2022-08-05T04:08:22;20.20;99.90
11824;DHT22;5969;50.780;7.726;2022-08-05T04:10:49;20.20;99.90
11824;DHT22;5969;50.780;7.726;2022-08-05T04:13:17;20.20;99.90
11824;DHT22;5969;50.780;7.726;2022-08-05T04:15:46;20.10;99.90
11824;DHT22;5969;50.780;7.726;2022-08-05T04:18:14;20.10;99.90
11824;DHT22;5969;50.780;7.726;2022-08-05T04:20:41;20.20;99.90
11824;DHT22;5969;50.780;7.726;2022-08-05T04:23:08;20.20;99.90
11824;DHT22;5969;50.780;7.726;2022-08-05T04:25:35;20.10;99.90
11824;DHT22;5969;50.780;7.726;2022-08-05T04:28:02;20.10;99.90
11824;DHT22;5969;50.780;7.726;2022-08-05T04:30:30;20.20;99.90
11824;DHT22;5969;50.780;7.726;2022-08-05T04:32:57;20.20;99.90
11824;DHT22;5969;50.780;7.726;2022-08-05T04:35:24;20.10;99.90
11824;DHT22;5969;50.780;7.726;2022-08-05T04:37:50;20.20;99.90
11824;DHT22;5969;50.780;7.726;2022-08-05T04:40:17;20.10;99.90
11824;DHT22;5969;50.780;7.726;2022-08-05T04:42:44;20.10;99.90
11824;DHT22;5969;50.780;7.726;2022-08-05T04:45:10;20.10;99.90
11824;DHT22;5969;50.780;7.726;2022-08-05T04:47:38;20.10;99.90
11824;DHT22;5969;50.780;7.726;2022-08-05T04:50:06;20.00;99.90
11824;DHT22;5969;50.780;7.726;2022-08-05T04:52:33;20.00;99.90
11824;DHT22;5969;50.780;7.726;2022-08-05T04:54:59;20.00;99.90
11824;DHT22;5969;50.780;7.726;2022-08-05T04:57:26;20.00;99.90
11824;DHT22;5969;50.780;7.726;2022-08-05T04:59:53;20.10;99.90
11824;DHT22;5969;50.780;7.726;2022-08-05T05:02:20;20.10;99.90
11824;DHT22;5969;50.780;7.726;2022-08-05T05:04:48;20.00;99.90
11824;DHT22;5969;50.780;7.726;2022-08-05T05:07:15;20.10;99.90
11824;DHT22;5969;50.780;7.726;2022-08-05T05:09:41;20.10;99.90
11824;DHT22;5969;50.780;7.726;2022-08-05T05:12:08;20.20;99.90
11824;DHT22;5969;50.780;7.726;2022-08-05T05:14:35;20.10;99.90
11824;DHT22;5969;50.780;7.726;2022-08-05T05:17:02;20.10;99.90
11824;DHT22;5969;50.780;7.726;2022-08-05T05:19:29;20.10;99.90
11824;DHT22;5969;50.780;7.726;2022-08-05T05:21:57;20.00;99.90
11824;DHT22;5969;50.780;7.726;2022-08-05T05:24:24;20.00;99.90
11824;DHT22;5969;50.780;7.726;2022-08-05T05:26:51;20.00;99.90
11824;DHT22;5969;50.780;7.726;2022-08-05T05:29:17;20.00;99.90
11824;DHT22;5969;50.780;7.726;2022-08-05T05:31:44;20.00;99.90
11824;DHT22;5969;50.780;7.726;2022-08-05T05:34:11;20.10;99.90
11824;DHT22;5969;50.780;7.726;2022-08-05T05:36:38;20.10;99.90
11824;DHT22;5969;50.780;7.726;2022-08-05T05:39:06;20.20;99.90
11824;DHT22;5969;50.780;7.726;2022-08-05T05:41:32;20.20;99.90
11824;DHT22;5969;50.780;7.726;2022-08-05T05:43:59;20.10;99.90
11824;DHT22;5969;50.780;7.726;2022-08-05T05:46:26;20.20;99.90
11824;DHT22;5969;50.780;7.726;2022-08-05T05:48:53;20.20;99.90
11824;DHT22;5969;50.780;7.726;2022-08-05T05:51:20;20.20;99.90
11824;DHT22;5969;50.780;7.726;2022-08-05T05:53:48;20.20;99.90
11824;DHT22;5969;50.780;7.726;2022-08-05T05:56:16;20.20;99.90
11824;DHT22;5969;50.780;7.726;2022-08-05T05:58:45;20.20;99.90
11824;DHT22;5969;50.780;7.726;2022-08-05T06:01:12;20.20;99.90
11824;DHT22;5969;50.780;7.726;2022-08-05T06:03:39;20.30;99.90
11824;DHT22;5969;50.780;7.726;2022-08-05T06:06:06;20.40;99.90
11824;DHT22;5969;50.780;7.726;2022-08-05T06:08:33;20.50;99.90
11824;DHT22;5969;50.780;7.726;2022-08-05T06:11:00;20.70;99.90
11824;DHT22;5969;50.780;7.726;2022-08-05T06:13:28;20.80;99.90
11824;DHT22;5969;50.780;7.726;2022-08-05T06:15:55;20.90;99.90
11824;DHT22;5969;50.780;7.726;2022-08-05T06:18:22;20.90;99.90
11824;DHT22;5969;50.780;7.726;2022-08-05T06:20:48;21.10;99.90
11824;DHT22;5969;50.780;7.726;2022-08-05T06:23:15;21.20;99.90
11824;DHT22;5969;50.780;7.726;2022-08-05T06:25:42;21.30;99.90
11824;DHT22;5969;50.780;7.726;2022-08-05T06:28:08;21.20;99.90
11824;DHT22;5969;50.780;7.726;2022-08-05T06:30:37;21.00;99.90
11824;DHT22;5969;50.780;7.726;2022-08-05T06:33:03;20.90;99.90
11824;DHT22;5969;50.780;7.726;2022-08-05T06:35:30;20.80;99.90
11824;DHT22;5969;50.780;7.726;2022-08-05T06:37:57;20.50;99.90
11824;DHT22;5969;50.780;7.726;2022-08-05T06:40:24;20.40;99.90
11824;DHT22;5969;50.780;7.726;2022-08-05T06:42:50;20.40;99.90
11824;DHT22;5969;50.780;7.726;2022-08-05T06:45:17;20.40;99.90
11824;DHT22;5969;50.780;7.726;2022-08-05T06:47:45;20.40;99.90
11824;DHT22;5969;50.780;7.726;2022-08-05T06:50:12;20.40;99.90
11824;DHT22;5969;50.780;7.726;2022-08-05T06:52:39;20.30;99.90
11824;DHT22;5969;50.780;7.726;2022-08-05T06:55:06;20.20;99.90
11824;DHT22;5969;50.780;7.726;2022-08-05T06:57:33;20.30;99.90
11824;DHT22;5969;50.780;7.726;2022-08-05T07:00:00;20.30;99.90
11824;DHT22;5969;50.780;7.726;2022-08-05T07:02:28;20.30;99.90
11824;DHT22;5969;50.780;7.726;2022-08-05T07:04:56;20.30;99.90
11824;DHT22;5969;50.780;7.726;2022-08-05T07:07:23;20.30;99.90
11824;DHT22;5969;50.780;7.726;2022-08-05T07:09:49;20.50;99.90
11824;DHT22;5969;50.780;7.726;2022-08-05T07:12:16;20.70;99.90
11824;DHT22;5969;50.780;7.726;2022-08-05T07:14:57;20.80;99.90
11824;DHT22;5969;50.780;7.726;2022-08-05T07:17:41;21.00;99.90
11824;DHT22;5969;50.780;7.726;2022-08-05T07:20:09;21.10;99.90
11824;DHT22;5969;50.780;7.726;2022-08-05T07:22:36;21.20;99.90
11824;DHT22;5969;50.780;7.726;2022-08-05T07:25:04;21.10;99.90
11824;DHT22;5969;50.780;7.726;2022-08-05T07:27:31;21.30;99.90
11824;DHT22;5969;50.780;7.726;2022-08-05T07:29:58;21.30;99.90
11824;DHT22;5969;50.780;7.726;2022-08-05T07:32:24;21.30;99.90
11824;DHT22;5969;50.780;7.726;2022-08-05T07:34:51;21.40;99.90
11824;DHT22;5969;50.780;7.726;2022-08-05T07:37:19;21.50;99.90
11824;DHT22;5969;50.780;7.726;2022-08-05T07:39:46;21.50;99.90
11824;DHT22;5969;50.780;7.726;2022-08-05T07:42:13;21.60;99.90
11824;DHT22;5969;50.780;7.726;2022-08-05T07:44:40;21.40;99.90
11824;DHT22;5969;50.780;7.726;2022-08-05T07:47:07;21.30;99.90
11824;DHT22;5969;50.780;7.726;2022-08-05T07:49:34;21.40;99.90
11824;DHT22;5969;50.780;7.726;2022-08-05T07:52:01;21.40;99.90
11824;DHT22;5969;50.780;7.726;2022-08-05T07:54:29;21.30;99.90
11824;DHT22;5969;50.780;7.726;2022-08-05T07:56:56;21.30;99.90
11824;DHT22;5969;50.780;7.726;2022-08-05T07:59:22;21.40;99.90
11824;DHT22;5969;50.780;7.726;2022-08-05T08:01:49;21.40;99.90
11824;DHT22;5969;50.780;7.726;2022-08-05T08:04:16;21.50;99.90
11824;DHT22;5969;50.780;7.726;2022-08-05T08:06:43;21.40;99.90
11824;DHT22;5969;50.780;7.726;2022-08-05T08:09:10;21.20;99.90
11824;DHT22;5969;50.780;7.726;2022-08-05T08:11:38;21.00;99.90
11824;DHT22;5969;50.780;7.726;2022-08-05T08:14:05;20.70;99.90
11824;DHT22;5969;50.780;7.726;2022-08-05T08:16:32;20.50;99.90
11824;DHT22;5969;50.780;7.726;2022-08-05T08:18:59;20.40;99.90
11824;DHT22;5969;50.780;7.726;2022-08-05T08:21:25;20.40;99.90
11824;DHT22;5969;50.780;7.726;2022-08-05T08:23:52;20.50;99.90
11824;DHT22;5969;50.780;7.726;2022-08-05T08:26:20;20.70;99.90
11824;DHT22;5969;50.780;7.726;2022-08-05T08:28:48;20.80;99.90
11824;DHT22;5969;50.780;7.726;2022-08-05T08:31:15;20.80;99.90
11824;DHT22;5969;50.780;7.726;2022-08-05T08:33:42;20.60;99.90
11824;DHT22;5969;50.780;7.726;2022-08-05T08:36:09;20.30;99.90
11824;DHT22;5969;50.780;7.726;2022-08-05T08:38:36;20.20;99.90
11824;DHT22;5969;50.780;7.726;2022-08-05T08:41:05;20.10;99.90
11824;DHT22;5969;50.780;7.726;2022-08-05T08:43:33;20.10;99.90
11824;DHT22;5969;50.780;7.726;2022-08-05T08:46:02;20.00;99.90
11824;DHT22;5969;50.780;7.726;2022-08-05T08:48:30;20.00;99.90
11824;DHT22;5969;50.780;7.726;2022-08-05T08:50:58;20.10;99.90
11824;DHT22;5969;50.780;7.726;2022-08-05T08:53:27;20.10;99.90
11824;DHT22;5969;50.780;7.726;2022-08-05T08:55:53;20.10;99.90
11824;DHT22;5969;50.780;7.726;2022-08-05T08:58:21;20.10;99.90
11824;DHT22;5969;50.780;7.726;2022-08-05T09:00:48;20.10;99.90
11824;DHT22;5969;50.780;7.726;2022-08-05T09:03:18;20.10;99.90
11824;DHT22;5969;50.780;7.726;2022-08-05T09:05:46;20.20;99.90
11824;DHT22;5969;50.780;7.726;2022-08-05T09:08:13;20.30;99.90
11824;DHT22;5969;50.780;7.726;2022-08-05T09:10:41;20.30;99.90
11824;DHT22;5969;50.780;7.726;2022-08-05T09:13:09;20.50;99.90
11824;DHT22;5969;50.780;7.726;2022-08-05T09:15:37;20.60;99.90
11824;DHT22;5969;50.780;7.726;2022-08-05T09:18:06;20.90;99.90
11824;DHT22;5969;50.780;7.726;2022-08-05T09:20:35;21.30;99.90
11824;DHT22;5969;50.780;7.726;2022-08-05T09:23:07;21.30;99.90
11824;DHT22;5969;50.780;7.726;2022-08-05T09:25:36;21.50;99.90
11824;DHT22;5969;50.780;7.726;2022-08-05T09:28:33;21.70;99.90
11824;DHT22;5969;50.780;7.726;2022-08-05T09:31:02;22.30;99.90
11824;DHT22;5969;50.780;7.726;2022-08-05T09:33:30;22.30;99.90
11824;DHT22;5969;50.780;7.726;2022-08-05T09:36:00;22.20;99.90
11824;DHT22;5969;50.780;7.726;2022-08-05T09:38:28;22.10;99.90
11824;DHT22;5969;50.780;7.726;2022-08-05T09:41:01;21.90;99.90
11824;DHT22;5969;50.780;7.726;2022-08-05T09:43:31;21.70;99.90
11824;DHT22;5969;50.780;7.726;2022-08-05T09:45:58;21.60;99.90
11824;DHT22;5969;50.780;7.726;2022-08-05T09:48:26;21.50;99.90
11824;DHT22;5969;50.780;7.726;2022-08-05T09:50:55;21.30;99.90
11824;DHT22;5969;50.780;7.726;2022-08-05T09:53:24;21.20;99.90
11824;DHT22;5969;50.780;7.726;2022-08-05T09:55:56;21.10;99.90
11824;DHT22;5969;50.780;7.726;2022-08-05T09:58:24;21.00;99.90
11824;DHT22;5969;50.780;7.726;2022-08-05T10:00:53;21.10;99.90
11824;DHT22;5969;50.780;7.726;2022-08-05T10:03:21;21.10;99.90
11824;DHT22;5969;50.780;7.726;2022-08-05T10:06:00;21.20;99.90
11824;DHT22;5969;50.780;7.726;2022-08-05T10:08:29;21.30;99.90
11824;DHT22;5969;50.780;7.726;2022-08-05T10:10:56;21.60;99.90
11824;DHT22;5969;50.780;7.726;2022-08-05T10:13:27;22.00;99.90
11824;DHT22;5969;50.780;7.726;2022-08-05T10:15:55;22.40;99.90
11824;DHT22;5969;50.780;7.726;2022-08-05T10:18:23;22.60;99.90
11824;DHT22;5969;50.780;7.726;2022-08-05T10:20:53;22.80;99.90
11824;DHT22;5969;50.780;7.726;2022-08-05T10:23:22;22.70;99.90
11824;DHT22;5969;50.780;7.726;2022-08-05T10:25:51;22.70;99.90
11824;DHT22;5969;50.780;7.726;2022-08-05T10:28:19;22.70;99.90
11824;DHT22;5969;50.780;7.726;2022-08-05T10:30:46;22.40;99.90
11824;DHT22;5969;50.780;7.726;2022-08-05T10:33:13;22.40;99.90
11824;DHT22;5969;50.780;7.726;2022-08-05T10:35:40;22.40;99.90
11824;DHT22;5969;50.780;7.726;2022-08-05T10:38:07;22.50;99.90
11824;DHT22;5969;50.780;7.726;2022-08-05T10:40:37;22.60;99.90
11824;DHT22;5969;50.780;7.726;2022-08-05T10:43:16;22.70;99.90
11824;DHT22;5969;50.780;7.726;2022-08-05T10:45:54;22.60;99.90
11824;DHT22;5969;50.780;7.726;2022-08-05T10:48:29;22.70;99.90
11824;DHT22;5969;50.780;7.726;2022-08-05T10:50:57;22.90;99.90
11824;DHT22;5969;50.780;7.726;2022-08-05T10:53:35;23.00;99.90
11824;DHT22;5969;50.780;7.726;2022-08-05T10:56:04;22.70;99.90
11824;DHT22;5969;50.780;7.726;2022-08-05T10:58:33;22.50;99.90
11824;DHT22;5969;50.780;7.726;2022-08-05T11:01:04;22.50;99.90
11824;DHT22;5969;50.780;7.726;2022-08-05T11:03:31;22.20;99.90
11824;DHT22;5969;50.780;7.726;2022-08-05T11:06:03;22.20;99.90
11824;DHT22;5969;50.780;7.726;2022-08-05T11:08:31;22.00;99.90
11824;DHT22;5969;50.780;7.726;2022-08-05T11:11:31;22.20;99.90
11824;DHT22;5969;50.780;7.726;2022-08-05T11:14:00;22.30;99.90
11824;DHT22;5969;50.780;7.726;2022-08-05T11:16:27;22.00;99.90
11824;DHT22;5969;50.780;7.726;2022-08-05T11:19:25;22.00;99.90
11824;DHT22;5969;50.780;7.726;2022-08-05T11:21:52;22.20;99.90
11824;DHT22;5969;50.780;7.726;2022-08-05T11:24:19;22.20;99.90
11824;DHT22;5969;50.780;7.726;2022-08-05T11:26:48;21.90;99.90
11824;DHT22;5969;50.780;7.726;2022-08-05T11:29:43;21.50;99.90
11824;DHT22;5969;50.780;7.726;2022-08-05T11:32:24;21.20;99.90
11824;DHT22;5969;50.780;7.726;2022-08-05T11:34:53;21.20;99.90
11824;DHT22;5969;50.780;7.726;2022-08-05T11:37:43;21.20;99.90
11824;DHT22;5969;50.780;7.726;2022-08-05T11:40:55;21.40;99.90
11824;DHT22;5969;50.780;7.726;2022-08-05T11:43:23;21.50;99.90
11824;DHT22;5969;50.780;7.726;2022-08-05T11:45:51;21.40;99.90
11824;DHT22;5969;50.780;7.726;2022-08-05T11:48:18;21.30;99.90
11824;DHT22;5969;50.780;7.726;2022-08-05T11:50:46;21.10;99.90
11824;DHT22;5969;50.780;7.726;2022-08-05T11:53:13;21.00;99.90
11824;DHT22;5969;50.780;7.726;2022-08-05T11:55:52;20.90;99.90
11824;DHT22;5969;50.780;7.726;2022-08-05T11:58:26;20.60;99.90
11824;DHT22;5969;50.780;7.726;2022-08-05T12:01:01;20.40;99.90
11824;DHT22;5969;50.780;7.726;2022-08-05T12:03:28;20.20;99.90
11824;DHT22;5969;50.780;7.726;2022-08-05T12:06:03;20.10;99.90
11824;DHT22;5969;50.780;7.726;2022-08-05T12:08:29;20.10;99.90
11824;DHT22;5969;50.780;7.726;2022-08-05T12:10:57;19.70;99.90
11824;DHT22;5969;50.780;7.726;2022-08-05T12:13:24;19.60;99.90
11824;DHT22;5969;50.780;7.726;2022-08-05T12:15:51;19.40;99.90
11824;DHT22;5969;50.780;7.726;2022-08-05T12:18:26;19.30;99.90
11824;DHT22;5969;50.780;7.726;2022-08-05T12:20:54;19.30;99.90
11824;DHT22;5969;50.780;7.726;2022-08-05T12:23:21;19.30;99.90
11824;DHT22;5969;50.780;7.726;2022-08-05T12:25:49;19.50;99.90
11824;DHT22;5969;50.780;7.726;2022-08-05T12:28:32;19.40;99.90
11824;DHT22;5969;50.780;7.726;2022-08-05T12:30:59;19.70;99.90
11824;DHT22;5969;50.780;7.726;2022-08-05T12:33:28;19.90;99.90
11824;DHT22;5969;50.780;7.726;2022-08-05T12:35:55;20.40;99.90
11824;DHT22;5969;50.780;7.726;2022-08-05T12:38:22;20.50;99.90
11824;DHT22;5969;50.780;7.726;2022-08-05T12:40:50;20.80;99.90
11824;DHT22;5969;50.780;7.726;2022-08-05T12:43:18;21.20;99.90
11824;DHT22;5969;50.780;7.726;2022-08-05T12:45:52;21.20;99.90
11824;DHT22;5969;50.780;7.726;2022-08-05T12:48:20;21.20;99.90
11824;DHT22;5969;50.780;7.726;2022-08-05T12:51:10;21.50;99.90
11824;DHT22;5969;50.780;7.726;2022-08-05T12:53:41;21.60;99.90
11824;DHT22;5969;50.780;7.726;2022-08-05T12:56:16;21.10;99.90
11824;DHT22;5969;50.780;7.726;2022-08-05T12:58:43;20.50;99.90
11824;DHT22;5969;50.780;7.726;2022-08-05T13:01:13;20.50;99.90
11824;DHT22;5969;50.780;7.726;2022-08-05T13:03:40;20.80;99.90
11824;DHT22;5969;50.780;7.726;2022-08-05T13:06:09;20.70;99.90
11824;DHT22;5969;50.780;7.726;2022-08-05T13:08:39;20.70;99.90
11824;DHT22;5969;50.780;7.726;2022-08-05T13:11:06;20.60;99.90
11824;DHT22;5969;50.780;7.726;2022-08-05T13:13:36;20.50;99.90
11824;DHT22;5969;50.780;7.726;2022-08-05T13:16:11;20.40;99.90
11824;DHT22;5969;50.780;7.726;2022-08-05T13:18:38;20.30;99.90
11824;DHT22;5969;50.780;7.726;2022-08-05T13:21:05;20.40;99.90
11824;DHT22;5969;50.780;7.726;2022-08-05T13:23:33;20.70;99.90
11824;DHT22;5969;50.780;7.726;2022-08-05T13:26:01;20.90;99.90
11824;DHT22;5969;50.780;7.726;2022-08-05T13:28:30;21.20;99.90
11824;DHT22;5969;50.780;7.726;2022-08-05T13:30:56;22.20;99.90
11824;DHT22;5969;50.780;7.726;2022-08-05T13:33:23;23.50;99.90
11824;DHT22;5969;50.780;7.726;2022-08-05T13:35:50;24.50;99.90
11824;DHT22;5969;50.780;7.726;2022-08-05T13:38:17;25.20;99.90
11824;DHT22;5969;50.780;7.726;2022-08-05T13:40:46;24.70;99.90
11824;DHT22;5969;50.780;7.726;2022-08-05T13:43:18;24.90;99.90
11824;DHT22;5969;50.780;7.726;2022-08-05T13:45:45;26.20;99.90
11824;DHT22;5969;50.780;7.726;2022-08-05T13:48:12;25.90;99.90
11824;DHT22;5969;50.780;7.726;2022-08-05T13:50:38;25.90;99.90
11824;DHT22;5969;50.780;7.726;2022-08-05T13:53:05;24.70;99.90
11824;DHT22;5969;50.780;7.726;2022-08-05T13:55:32;24.40;99.90
11824;DHT22;5969;50.780;7.726;2022-08-05T13:57:59;24.00;99.90
11824;DHT22;5969;50.780;7.726;2022-08-05T14:00:27;25.20;99.90
11824;DHT22;5969;50.780;7.726;2022-08-05T14:02:55;25.70;99.90
11824;DHT22;5969;50.780;7.726;2022-08-05T14:05:22;26.40;99.90
11824;DHT22;5969;50.780;7.726;2022-08-05T14:07:48;25.90;99.90
11824;DHT22;5969;50.780;7.726;2022-08-05T14:10:20;25.60;99.90
11824;DHT22;5969;50.780;7.726;2022-08-05T14:12:48;25.00;99.90
11824;DHT22;5969;50.780;7.726;2022-08-05T14:15:15;24.90;99.90
11824;DHT22;5969;50.780;7.726;2022-08-05T14:17:44;23.90;99.90
11824;DHT22;5969;50.780;7.726;2022-08-05T14:20:11;23.50;99.90
11824;DHT22;5969;50.780;7.726;2022-08-05T14:22:38;23.80;99.90
11824;DHT22;5969;50.780;7.726;2022-08-05T14:25:06;24.90;99.90
11824;DHT22;5969;50.780;7.726;2022-08-05T14:27:34;25.50;99.90
11824;DHT22;5969;50.780;7.726;2022-08-05T14:30:01;25.50;99.90
11824;DHT22;5969;50.780;7.726;2022-08-05T14:32:28;25.90;99.90
11824;DHT22;5969;50.780;7.726;2022-08-05T14:34:56;26.50;99.90
11824;DHT22;5969;50.780;7.726;2022-08-05T14:37:24;27.30;99.90
11824;DHT22;5969;50.780;7.726;2022-08-05T14:39:51;27.60;99.90
11824;DHT22;5969;50.780;7.726;2022-08-05T14:42:18;28.60;99.90
11824;DHT22;5969;50.780;7.726;2022-08-05T14:44:46;28.40;99.90
11824;DHT22;5969;50.780;7.726;2022-08-05T14:47:13;28.30;99.90
11824;DHT22;5969;50.780;7.726;2022-08-05T14:49:40;27.60;99.90
11824;DHT22;5969;50.780;7.726;2022-08-05T14:52:08;27.30;99.90
11824;DHT22;5969;50.780;7.726;2022-08-05T14:54:36;27.90;99.90
11824;DHT22;5969;50.780;7.726;2022-08-05T14:57:03;27.40;99.90
11824;DHT22;5969;50.780;7.726;2022-08-05T14:59:30;27.80;99.70
11824;DHT22;5969;50.780;7.726;2022-08-05T15:01:56;28.70;99.80
11824;DHT22;5969;50.780;7.726;2022-08-05T15:04:23;29.90;99.20
11824;DHT22;5969;50.780;7.726;2022-08-05T15:06:50;30.00;97.90
11824;DHT22;5969;50.780;7.726;2022-08-05T15:09:19;27.10;99.40
11824;DHT22;5969;50.780;7.726;2022-08-05T15:11:46;25.80;99.90
11824;DHT22;5969;50.780;7.726;2022-08-05T15:14:13;26.50;99.90
11824;DHT22;5969;50.780;7.726;2022-08-05T15:16:40;26.90;99.90
11824;DHT22;5969;50.780;7.726;2022-08-05T15:19:07;26.70;99.90
11824;DHT22;5969;50.780;7.726;2022-08-05T15:21:34;27.90;99.90
11824;DHT22;5969;50.780;7.726;2022-08-05T15:24:01;28.20;99.50
11824;DHT22;5969;50.780;7.726;2022-08-05T15:26:49;27.60;99.10
11824;DHT22;5969;50.780;7.726;2022-08-05T15:29:24;26.00;99.90
11824;DHT22;5969;50.780;7.726;2022-08-05T15:31:51;24.80;99.90
11824;DHT22;5969;50.780;7.726;2022-08-05T15:34:18;24.10;99.90
11824;DHT22;5969;50.780;7.726;2022-08-05T15:36:45;23.60;99.90
11824;DHT22;5969;50.780;7.726;2022-08-05T15:39:11;23.40;99.90
11824;DHT22;5969;50.780;7.726;2022-08-05T15:41:48;23.20;99.90
11824;DHT22;5969;50.780;7.726;2022-08-05T15:44:22;23.30;99.90
11824;DHT22;5969;50.780;7.726;2022-08-05T15:46:50;23.50;99.90
11824;DHT22;5969;50.780;7.726;2022-08-05T15:49:24;23.50;99.90
11824;DHT22;5969;50.780;7.726;2022-08-05T15:52:10;24.40;99.90
11824;DHT22;5969;50.780;7.726;2022-08-05T15:57:30;24.80;99.90
11824;DHT22;5969;50.780;7.726;2022-08-05T16:00:10;24.40;99.90